Cinderella 1 — SBLK — position and weather

sailwx.info

Track history (hours):
 
Tides and Currents Weather Stations Pressure Air Temp Water Temp Dewpoint Dewpoint Depression Visibility Wind Speed Wind Dir Waves Ship Positions

Cinderella 1

Last reported at 2015-Aug-05 07:33 UTC. Time now 2015-Aug-05 08:26 UTC.
Position N 59°20' E 018°05'.

Length 42 m; draft 1.1 m.

Type: Passenger vessel. MMSI: 265524530.

Date/timePositionNaut miles runAvg speedWind from/ knotsBaromVisibWave heightAir tempDewpointWater temp
2015-Aug-05 07:33N 59°20' E 018°05'0 0.0
2015-Aug-05 06:31N 59°20' E 018°05'0 0.0
2015-Aug-05 05:33N 59°20' E 018°05'0 0.0
2015-Aug-05 04:33N 59°20' E 018°05'0 0.0
2015-Aug-05 03:26N 59°20' E 018°05'0 0.0
2015-Aug-05 02:30N 59°20' E 018°05'0 0.0
2015-Aug-05 01:31N 59°20' E 018°05'0 0.0
2015-Aug-05 00:27N 59°20' E 018°05'0 0.0
2015-Aug-04 23:33N 59°20' E 018°05'0 0.0
2015-Aug-04 22:31N 59°20' E 018°05'7 2.9
2015-Aug-04 20:07N 59°23' E 018°17'812.1
2015-Aug-04 19:26N 59°24' E 018°33'15 3.9
2015-Aug-04 15:33N 59°20' E 018°05'0 0.2
2015-Aug-04 14:33N 59°19' E 018°06'2 0.3
2015-Aug-04 08:14N 59°19' E 018°09'2 3.3
2015-Aug-04 07:33N 59°20' E 018°05'0 0.0
2015-Aug-04 06:05N 59°20' E 018°05'0 0.0
2015-Aug-04 05:33N 59°20' E 018°05'0 0.0
2015-Aug-04 04:33N 59°20' E 018°05'0 0.0
2015-Aug-04 03:33N 59°20' E 018°05'0 0.0
2015-Aug-04 02:33N 59°20' E 018°05'0 0.0
2015-Aug-04 01:33N 59°20' E 018°05'0 0.0
2015-Aug-04 00:33N 59°20' E 018°05'0 0.0
2015-Aug-03 23:33N 59°20' E 018°05'0 0.0
2015-Aug-03 22:33N 59°20' E 018°05'0 0.0
2015-Aug-03 21:33N 59°20' E 018°05'1 0.5
2015-Aug-03 20:33N 59°20' E 018°05'0 0.0
2015-Aug-03 15:34N 59°20' E 018°05'1 0.5
2015-Aug-03 14:33N 59°20' E 018°05'1 0.2
2015-Aug-03 08:09N 59°19' E 018°07'1 2.5
2015-Aug-03 07:33N 59°20' E 018°05'3 0.2
2015-Aug-02 19:31N 59°19' E 018°10'3 0.5
2015-Aug-02 14:33N 59°20' E 018°05'3 0.5
2015-Aug-02 08:20N 59°19' E 018°10'3 3.7
2015-Aug-02 07:33N 59°20' E 018°05'0 0.0
2015-Aug-02 06:34N 59°20' E 018°05'0 0.0
2015-Aug-02 05:33N 59°20' E 018°05'0 0.0
2015-Aug-02 04:33N 59°20' E 018°05'0 0.0
2015-Aug-02 03:33N 59°20' E 018°05'0 0.0
2015-Aug-02 02:33N 59°20' E 018°05'0 0.0
2015-Aug-02 01:31N 59°20' E 018°05'0 0.0
2015-Aug-02 00:33N 59°20' E 018°05'0 0.0
2015-Aug-01 23:33N 59°20' E 018°05'0 0.0
2015-Aug-01 22:34N 59°20' E 018°05'0 0.0
2015-Aug-01 21:33N 59°20' E 018°05'0 0.0
2015-Aug-01 20:33N 59°20' E 018°05'2 2.0
2015-Aug-01 19:33N 59°19' E 018°08'2 0.4
2015-Aug-01 14:34N 59°20' E 018°05'1 0.2
2015-Aug-01 08:09N 59°19' E 018°07'1 2.3
2015-Aug-01 07:33N 59°20' E 018°05'0 0.0
2015-Aug-01 03:30N 59°20' E 018°05'0 0.0
2015-Aug-01 02:07N 59°20' E 018°05'0 0.0
2015-Aug-01 00:17N 59°20' E 018°05'0 0.0
2015-Jul-31 23:32N 59°20' E 018°05'0 0.0
2015-Jul-31 22:31N 59°20' E 018°05'0 0.0
2015-Jul-31 21:28N 59°20' E 018°05'0 0.0
2015-Jul-31 20:31N 59°20' E 018°05'0 0.1
2015-Jul-31 15:34N 59°20' E 018°05'0 0.4
2015-Jul-31 14:31N 59°20' E 018°05'3 0.4
2015-Jul-31 08:18N 59°19' E 018°09'3 3.4
2015-Jul-31 07:33N 59°20' E 018°05'0 0.0
2015-Jul-31 06:33N 59°20' E 018°05'0 0.0
2015-Jul-31 05:30N 59°20' E 018°05'0 0.0
2015-Jul-31 04:32N 59°20' E 018°05'0 0.0
2015-Jul-31 03:33N 59°20' E 018°05'0 0.0
2015-Jul-31 02:33N 59°20' E 018°05'0 0.0
2015-Jul-31 01:33N 59°20' E 018°05'0 0.0
2015-Jul-31 00:33N 59°20' E 018°05'0 0.0
2015-Jul-30 23:33N 59°20' E 018°05'0 0.0
2015-Jul-30 22:33N 59°20' E 018°05'0 0.0
2015-Jul-30 21:33N 59°20' E 018°05'0 0.0
2015-Jul-30 20:33N 59°20' E 018°05'0 0.1
2015-Jul-30 15:34N 59°20' E 018°05'0 0.5
2015-Jul-30 14:34N 59°20' E 018°05'3 0.5
2015-Jul-30 08:20N 59°19' E 018°10'3 3.8
2015-Jul-30 07:33N 59°20' E 018°05'0 0.0
2015-Jul-30 06:30N 59°20' E 018°05'0 0.0
2015-Jul-30 05:33N 59°20' E 018°05'0 0.0
2015-Jul-30 04:33N 59°20' E 018°05'0 0.0
2015-Jul-30 03:33N 59°20' E 018°05'0 0.0
2015-Jul-30 02:32N 59°20' E 018°05'0 0.0
2015-Jul-30 01:33N 59°20' E 018°05'0 0.0
2015-Jul-30 00:31N 59°20' E 018°05'0 0.0
2015-Jul-29 23:33N 59°20' E 018°05'0 0.0
2015-Jul-29 22:31N 59°20' E 018°05'0 0.0
2015-Jul-29 20:34N 59°20' E 018°05'0 0.1
2015-Jul-29 15:33N 59°20' E 018°05'0 0.4
2015-Jul-29 14:33N 59°20' E 018°05'1 0.2
2015-Jul-29 08:10N 59°19' E 018°07'1 2.2
2015-Jul-29 07:33N 59°20' E 018°05'0 0.0
2015-Jul-29 05:33N 59°20' E 018°05'0 0.0
2015-Jul-29 04:10N 59°20' E 018°05'0 0.0
2015-Jul-29 03:33N 59°20' E 018°05'0 0.0
2015-Jul-29 02:34N 59°20' E 018°05'0 0.0
2015-Jul-29 01:33N 59°20' E 018°05'0 0.0
2015-Jul-29 00:34N 59°20' E 018°05'0 0.0
2015-Jul-28 23:33N 59°20' E 018°05'0 0.0
2015-Jul-28 22:33N 59°20' E 018°05'0 0.0
2015-Jul-28 21:34N 59°20' E 018°05'0 0.0
2015-Jul-28 20:33N 59°20' E 018°05'0 0.0
2015-Jul-28 19:31N 59°20' E 018°05'0 0.0
2015-Jul-28 18:33N 59°20' E 018°05'0 0.0
2015-Jul-28 17:32N 59°20' E 018°05'0 0.0
2015-Jul-28 16:32N 59°20' E 018°05'0 0.0
2015-Jul-28 15:33N 59°20' E 018°05'0 0.0
2015-Jul-28 14:33N 59°20' E 018°05'0 0.0
2015-Jul-28 13:33N 59°20' E 018°05'0 0.0
2015-Jul-28 12:33N 59°20' E 018°05'0 0.0
2015-Jul-28 11:33N 59°20' E 018°05'0 0.0
2015-Jul-28 10:32N 59°20' E 018°05'0 0.0
2015-Jul-28 09:33N 59°20' E 018°05'0 0.0
2015-Jul-28 08:33N 59°20' E 018°05'0 0.0
2015-Jul-28 07:20N 59°20' E 018°05'0 0.0
2015-Jul-28 06:32N 59°20' E 018°05'0 0.0
2015-Jul-28 05:33N 59°20' E 018°05'0 0.0
2015-Jul-28 04:33N 59°20' E 018°05'0 0.0
2015-Jul-28 03:33N 59°20' E 018°05'0 0.0
2015-Jul-28 02:32N 59°20' E 018°05'0 0.0
2015-Jul-28 01:31N 59°20' E 018°05'0 0.0
2015-Jul-28 00:33N 59°20' E 018°05'0 0.0
2015-Jul-27 23:33N 59°20' E 018°05'0 0.0
2015-Jul-27 22:32N 59°20' E 018°05'0 0.0
2015-Jul-27 21:33N 59°20' E 018°05'0 0.0
2015-Jul-27 20:34N 59°20' E 018°05'0 0.0
2015-Jul-27 19:33N 59°20' E 018°05'0 0.0
2015-Jul-27 18:26N 59°20' E 018°05'0 0.0
2015-Jul-27 17:33N 59°20' E 018°05'0 0.0
2015-Jul-27 16:33N 59°20' E 018°05'0 0.0
2015-Jul-27 14:33N 59°20' E 018°05'0 0.0
2015-Jul-27 13:30N 59°20' E 018°05'0 0.0
2015-Jul-27 12:20N 59°20' E 018°05'0 0.0
2015-Jul-27 11:29N 59°20' E 018°05'0 0.0
2015-Jul-27 10:25N 59°20' E 018°05'0 0.0
2015-Jul-27 09:33N 59°20' E 018°05'0 0.0
2015-Jul-27 08:32N 59°20' E 018°05'0 0.0
2015-Jul-27 07:33N 59°20' E 018°05'0 0.0
2015-Jul-27 06:32N 59°20' E 018°05'0 0.0
2015-Jul-27 05:33N 59°20' E 018°05'0 0.0
2015-Jul-27 04:33N 59°20' E 018°05'0 0.0
2015-Jul-27 03:32N 59°20' E 018°05'0 0.0
2015-Jul-27 02:32N 59°20' E 018°05'0 0.0
2015-Jul-27 01:29N 59°20' E 018°05'0 0.0
2015-Jul-26 22:30N 59°20' E 018°05'0 0.0
2015-Jul-26 21:33N 59°20' E 018°05'3 1.3
2015-Jul-26 19:33N 59°19' E 018°10'3 0.5
2015-Jul-26 14:33N 59°20' E 018°05'1 0.2
2015-Jul-26 08:09N 59°19' E 018°07'1 2.2
2015-Jul-26 07:34N 59°20' E 018°05'  
Track history (hours):
 
Tides and Currents Weather Stations Pressure Air Temp Water Temp Dewpoint Dewpoint Depression Visibility Wind Speed Wind Dir Waves Ship Positions

Cinderella 1

Last reported at 2015-Aug-05 07:33 UTC. Time now 2015-Aug-05 08:26 UTC.
Position N 59°20' E 018°05'.

Length 42 m; draft 1.1 m.

Type: Passenger vessel. MMSI: 265524530.

Date/timePositionNaut miles runAvg speedWind from/ knotsBaromVisibWave heightAir tempDewpointWater temp
2015-Aug-05 07:33N 59°20' E 018°05'0 0.0
2015-Aug-05 06:31N 59°20' E 018°05'0 0.0
2015-Aug-05 05:33N 59°20' E 018°05'0 0.0
2015-Aug-05 04:33N 59°20' E 018°05'0 0.0
2015-Aug-05 03:26N 59°20' E 018°05'0 0.0
2015-Aug-05 02:30N 59°20' E 018°05'0 0.0
2015-Aug-05 01:31N 59°20' E 018°05'0 0.0
2015-Aug-05 00:27N 59°20' E 018°05'0 0.0
2015-Aug-04 23:33N 59°20' E 018°05'0 0.0
2015-Aug-04 22:31N 59°20' E 018°05'7 2.9
2015-Aug-04 20:07N 59°23' E 018°17'812.1
2015-Aug-04 19:26N 59°24' E 018°33'15 3.9
2015-Aug-04 15:33N 59°20' E 018°05'0 0.2
2015-Aug-04 14:33N 59°19' E 018°06'2 0.3
2015-Aug-04 08:14N 59°19' E 018°09'2 3.3
2015-Aug-04 07:33N 59°20' E 018°05'0 0.0
2015-Aug-04 06:05N 59°20' E 018°05'0 0.0
2015-Aug-04 05:33N 59°20' E 018°05'0 0.0
2015-Aug-04 04:33N 59°20' E 018°05'0 0.0
2015-Aug-04 03:33N 59°20' E 018°05'0 0.0
2015-Aug-04 02:33N 59°20' E 018°05'0 0.0
2015-Aug-04 01:33N 59°20' E 018°05'0 0.0
2015-Aug-04 00:33N 59°20' E 018°05'0 0.0
2015-Aug-03 23:33N 59°20' E 018°05'0 0.0
2015-Aug-03 22:33N 59°20' E 018°05'0 0.0
2015-Aug-03 21:33N 59°20' E 018°05'1 0.5
2015-Aug-03 20:33N 59°20' E 018°05'0 0.0
2015-Aug-03 15:34N 59°20' E 018°05'1 0.5
2015-Aug-03 14:33N 59°20' E 018°05'1 0.2
2015-Aug-03 08:09N 59°19' E 018°07'1 2.5
2015-Aug-03 07:33N 59°20' E 018°05'3 0.2
2015-Aug-02 19:31N 59°19' E 018°10'3 0.5
2015-Aug-02 14:33N 59°20' E 018°05'3 0.5
2015-Aug-02 08:20N 59°19' E 018°10'3 3.7
2015-Aug-02 07:33N 59°20' E 018°05'0 0.0
2015-Aug-02 06:34N 59°20' E 018°05'0 0.0
2015-Aug-02 05:33N 59°20' E 018°05'0 0.0
2015-Aug-02 04:33N 59°20' E 018°05'0 0.0
2015-Aug-02 03:33N 59°20' E 018°05'0 0.0
2015-Aug-02 02:33N 59°20' E 018°05'0 0.0
2015-Aug-02 01:31N 59°20' E 018°05'0 0.0
2015-Aug-02 00:33N 59°20' E 018°05'0 0.0
2015-Aug-01 23:33N 59°20' E 018°05'0 0.0
2015-Aug-01 22:34N 59°20' E 018°05'0 0.0
2015-Aug-01 21:33N 59°20' E 018°05'0 0.0
2015-Aug-01 20:33N 59°20' E 018°05'2 2.0
2015-Aug-01 19:33N 59°19' E 018°08'2 0.4
2015-Aug-01 14:34N 59°20' E 018°05'1 0.2
2015-Aug-01 08:09N 59°19' E 018°07'1 2.3
2015-Aug-01 07:33N 59°20' E 018°05'0 0.0
2015-Aug-01 03:30N 59°20' E 018°05'0 0.0
2015-Aug-01 02:07N 59°20' E 018°05'0 0.0
2015-Aug-01 00:17N 59°20' E 018°05'0 0.0
2015-Jul-31 23:32N 59°20' E 018°05'0 0.0
2015-Jul-31 22:31N 59°20' E 018°05'0 0.0
2015-Jul-31 21:28N 59°20' E 018°05'0 0.0
2015-Jul-31 20:31N 59°20' E 018°05'0 0.1
2015-Jul-31 15:34N 59°20' E 018°05'0 0.4
2015-Jul-31 14:31N 59°20' E 018°05'3 0.4
2015-Jul-31 08:18N 59°19' E 018°09'3 3.4
2015-Jul-31 07:33N 59°20' E 018°05'0 0.0
2015-Jul-31 06:33N 59°20' E 018°05'0 0.0
2015-Jul-31 05:30N 59°20' E 018°05'0 0.0
2015-Jul-31 04:32N 59°20' E 018°05'0 0.0
2015-Jul-31 03:33N 59°20' E 018°05'0 0.0
2015-Jul-31 02:33N 59°20' E 018°05'0 0.0
2015-Jul-31 01:33N 59°20' E 018°05'0 0.0
2015-Jul-31 00:33N 59°20' E 018°05'0 0.0
2015-Jul-30 23:33N 59°20' E 018°05'0 0.0
2015-Jul-30 22:33N 59°20' E 018°05'0 0.0
2015-Jul-30 21:33N 59°20' E 018°05'0 0.0
2015-Jul-30 20:33N 59°20' E 018°05'0 0.1
2015-Jul-30 15:34N 59°20' E 018°05'0 0.5
2015-Jul-30 14:34N 59°20' E 018°05'3 0.5
2015-Jul-30 08:20N 59°19' E 018°10'3 3.8
2015-Jul-30 07:33N 59°20' E 018°05'0 0.0
2015-Jul-30 06:30N 59°20' E 018°05'0 0.0
2015-Jul-30 05:33N 59°20' E 018°05'0 0.0
2015-Jul-30 04:33N 59°20' E 018°05'0 0.0
2015-Jul-30 03:33N 59°20' E 018°05'0 0.0
2015-Jul-30 02:32N 59°20' E 018°05'0 0.0
2015-Jul-30 01:33N 59°20' E 018°05'0 0.0
2015-Jul-30 00:31N 59°20' E 018°05'0 0.0
2015-Jul-29 23:33N 59°20' E 018°05'0 0.0
2015-Jul-29 22:31N 59°20' E 018°05'0 0.0
2015-Jul-29 20:34N 59°20' E 018°05'0 0.1
2015-Jul-29 15:33N 59°20' E 018°05'0 0.4
2015-Jul-29 14:33N 59°20' E 018°05'1 0.2
2015-Jul-29 08:10N 59°19' E 018°07'1 2.2
2015-Jul-29 07:33N 59°20' E 018°05'0 0.0
2015-Jul-29 05:33N 59°20' E 018°05'0 0.0
2015-Jul-29 04:10N 59°20' E 018°05'0 0.0
2015-Jul-29 03:33N 59°20' E 018°05'0 0.0
2015-Jul-29 02:34N 59°20' E 018°05'0 0.0
2015-Jul-29 01:33N 59°20' E 018°05'0 0.0
2015-Jul-29 00:34N 59°20' E 018°05'0 0.0
2015-Jul-28 23:33N 59°20' E 018°05'0 0.0
2015-Jul-28 22:33N 59°20' E 018°05'0 0.0
2015-Jul-28 21:34N 59°20' E 018°05'0 0.0
2015-Jul-28 20:33N 59°20' E 018°05'0 0.0
2015-Jul-28 19:31N 59°20' E 018°05'0 0.0
2015-Jul-28 18:33N 59°20' E 018°05'0 0.0
2015-Jul-28 17:32N 59°20' E 018°05'0 0.0
2015-Jul-28 16:32N 59°20' E 018°05'0 0.0
2015-Jul-28 15:33N 59°20' E 018°05'0 0.0
2015-Jul-28 14:33N 59°20' E 018°05'0 0.0
2015-Jul-28 13:33N 59°20' E 018°05'0 0.0
2015-Jul-28 12:33N 59°20' E 018°05'0 0.0
2015-Jul-28 11:33N 59°20' E 018°05'0 0.0
2015-Jul-28 10:32N 59°20' E 018°05'0 0.0
2015-Jul-28 09:33N 59°20' E 018°05'0 0.0
2015-Jul-28 08:33N 59°20' E 018°05'0 0.0
2015-Jul-28 07:20N 59°20' E 018°05'0 0.0
2015-Jul-28 06:32N 59°20' E 018°05'0 0.0
2015-Jul-28 05:33N 59°20' E 018°05'0 0.0
2015-Jul-28 04:33N 59°20' E 018°05'0 0.0
2015-Jul-28 03:33N 59°20' E 018°05'0 0.0
2015-Jul-28 02:32N 59°20' E 018°05'0 0.0
2015-Jul-28 01:31N 59°20' E 018°05'0 0.0
2015-Jul-28 00:33N 59°20' E 018°05'0 0.0
2015-Jul-27 23:33N 59°20' E 018°05'0 0.0
2015-Jul-27 22:32N 59°20' E 018°05'0 0.0
2015-Jul-27 21:33N 59°20' E 018°05'0 0.0
2015-Jul-27 20:34N 59°20' E 018°05'0 0.0
2015-Jul-27 19:33N 59°20' E 018°05'0 0.0
2015-Jul-27 18:26N 59°20' E 018°05'0 0.0
2015-Jul-27 17:33N 59°20' E 018°05'0 0.0
2015-Jul-27 16:33N 59°20' E 018°05'0 0.0
2015-Jul-27 14:33N 59°20' E 018°05'0 0.0
2015-Jul-27 13:30N 59°20' E 018°05'0 0.0
2015-Jul-27 12:20N 59°20' E 018°05'0 0.0
2015-Jul-27 11:29N 59°20' E 018°05'0 0.0
2015-Jul-27 10:25N 59°20' E 018°05'0 0.0
2015-Jul-27 09:33N 59°20' E 018°05'0 0.0
2015-Jul-27 08:32N 59°20' E 018°05'0 0.0
2015-Jul-27 07:33N 59°20' E 018°05'0 0.0
2015-Jul-27 06:32N 59°20' E 018°05'0 0.0
2015-Jul-27 05:33N 59°20' E 018°05'0 0.0
2015-Jul-27 04:33N 59°20' E 018°05'0 0.0
2015-Jul-27 03:32N 59°20' E 018°05'0 0.0
2015-Jul-27 02:32N 59°20' E 018°05'0 0.0
2015-Jul-27 01:29N 59°20' E 018°05'0 0.0
2015-Jul-26 22:30N 59°20' E 018°05'0 0.0
2015-Jul-26 21:33N 59°20' E 018°05'3 1.3
2015-Jul-26 19:33N 59°19' E 018°10'3 0.5
2015-Jul-26 14:33N 59°20' E 018°05'1 0.2
2015-Jul-26 08:09N 59°19' E 018°07'1 2.2
2015-Jul-26 07:34N 59°20' E 018°05'  

Dump ship's entire track history